createdAt,value
2023-03-02T00:00:59.120Z,64.43
2023-03-02T00:03:25.790Z,64.41
2023-03-02T00:05:53.949Z,64.32
2023-03-02T00:08:20.854Z,64.23
2023-03-02T00:10:47.807Z,64.16
2023-03-02T00:13:14.266Z,64.11
2023-03-02T00:15:40.856Z,63.96
2023-03-02T00:18:07.032Z,63.88
2023-03-02T00:20:35.127Z,63.71
2023-03-02T00:23:01.284Z,63.71
2023-03-02T00:25:28.143Z,63.51
2023-03-02T00:27:54.356Z,63.70
2023-03-02T00:30:20.552Z,63.63
2023-03-02T00:32:46.693Z,63.48
2023-03-02T00:35:12.831Z,63.59
2023-03-02T00:37:39.006Z,63.44
2023-03-02T00:40:07.215Z,63.33
2023-03-02T00:42:33.652Z,63.68
2023-03-02T00:45:00.920Z,63.63
2023-03-02T00:47:33.025Z,63.90
2023-03-02T00:50:01.828Z,64.01
2023-03-02T00:52:32.290Z,63.82
2023-03-02T00:54:58.894Z,63.86
2023-03-02T00:57:25.620Z,63.79
2023-03-02T00:59:53.696Z,63.83
2023-03-02T01:02:26.935Z,63.76
2023-03-02T01:04:53.622Z,63.69
2023-03-02T01:07:20.802Z,63.71
2023-03-02T01:09:50.377Z,63.59
2023-03-02T01:12:16.619Z,63.46
2023-03-02T01:14:46.421Z,63.30
2023-03-02T01:17:13.212Z,63.17
2023-03-02T01:19:40.550Z,63.22
2023-03-02T01:22:07.364Z,63.12
2023-03-02T01:24:33.543Z,63.23
2023-03-02T01:26:59.950Z,62.96
2023-03-02T01:29:26.261Z,63.07
2023-03-02T01:31:52.697Z,63.25
2023-03-02T01:34:18.773Z,63.21
2023-03-02T01:36:45.018Z,63.33
2023-03-02T01:39:15.192Z,63.28
2023-03-02T01:41:45.626Z,63.58
2023-03-02T01:44:37.918Z,63.49
2023-03-02T01:47:14.672Z,63.73
2023-03-02T01:49:56.129Z,63.73
2023-03-02T01:52:23.461Z,63.96
2023-03-02T01:54:52.620Z,63.99
2023-03-02T01:57:25.680Z,64.07
2023-03-02T02:00:01.109Z,63.88
2023-03-02T02:02:28.148Z,63.92
2023-03-02T02:04:55.625Z,64.06
2023-03-02T02:07:22.108Z,64.06
2023-03-02T02:09:52.324Z,64.13
2023-03-02T02:12:21.663Z,64.06
2023-03-02T02:14:48.670Z,63.93
2023-03-02T02:17:17.189Z,64.12
2023-03-02T02:19:43.214Z,64.13
2023-03-02T02:22:10.978Z,64.11
2023-03-02T02:24:43.871Z,64.11
2023-03-02T02:27:11.585Z,64.23
2023-03-02T02:29:45.482Z,64.04
2023-03-02T02:32:15.315Z,63.92
2023-03-02T02:34:50.798Z,64.15
2023-03-02T02:37:26.068Z,64.24
2023-03-02T02:39:53.087Z,64.12
2023-03-02T02:42:35.540Z,64.22
2023-03-02T02:45:05.950Z,64.40
2023-03-02T02:47:32.260Z,64.62
2023-03-02T02:49:58.722Z,64.62
2023-03-02T02:52:28.834Z,64.82
2023-03-02T02:54:57.351Z,64.92
2023-03-02T02:57:27.976Z,64.89
2023-03-02T02:59:57.669Z,65.01
2023-03-02T03:02:32.813Z,64.82
2023-03-02T03:05:04.876Z,64.78
2023-03-02T03:07:33.632Z,64.81
2023-03-02T03:10:13.652Z,64.90
2023-03-02T03:12:40.100Z,64.82
2023-03-02T03:15:08.382Z,64.98
2023-03-02T03:17:34.534Z,65.15
2023-03-02T03:20:10.476Z,65.09
2023-03-02T03:22:40.942Z,65.14
2023-03-02T03:25:09.087Z,65.22
2023-03-02T03:27:35.177Z,65.10
2023-03-02T03:30:02.456Z,65.10
2023-03-02T03:32:33.753Z,65.09
2023-03-02T03:35:00.151Z,65.00
2023-03-02T03:37:29.248Z,64.81
2023-03-02T03:39:55.426Z,64.75
2023-03-02T03:42:23.504Z,64.41
2023-03-02T03:44:50.010Z,64.61
2023-03-02T03:47:16.324Z,64.66
2023-03-02T03:49:42.944Z,64.68
2023-03-02T03:52:09.233Z,64.87
2023-03-02T03:54:35.430Z,64.88
2023-03-02T03:57:01.515Z,64.86
2023-03-02T03:59:27.865Z,64.68
2023-03-02T04:02:00.586Z,64.66
2023-03-02T04:04:33.408Z,64.51
2023-03-02T04:07:01.855Z,64.44
2023-03-02T04:09:31.571Z,64.31
2023-03-02T04:11:58.152Z,64.32
2023-03-02T04:14:25.255Z,64.44
2023-03-02T04:16:52.609Z,64.36
2023-03-02T04:19:20.967Z,64.24
2023-03-02T04:21:52.256Z,64.32
2023-03-02T04:24:22.410Z,64.39
2023-03-02T04:26:50.215Z,64.46
2023-03-02T04:29:17.697Z,64.59
2023-03-02T04:31:44.206Z,64.56
2023-03-02T04:34:11.176Z,64.59
2023-03-02T04:36:40.272Z,64.55
2023-03-02T04:39:10.596Z,64.64
2023-03-02T04:41:36.692Z,64.60
2023-03-02T04:44:03.292Z,64.48
2023-03-02T04:46:29.916Z,64.44
2023-03-02T04:48:56.075Z,64.41
2023-03-02T04:51:26.242Z,64.53
2023-03-02T04:53:54.717Z,64.41
2023-03-02T04:56:21.484Z,64.54
2023-03-02T04:58:47.745Z,64.67
2023-03-02T05:01:15.552Z,64.75
2023-03-02T05:03:41.833Z,64.66
2023-03-02T05:06:08.439Z,64.67
2023-03-02T05:08:34.602Z,64.67
2023-03-02T05:11:00.823Z,64.73
2023-03-02T05:13:27.522Z,64.85
2023-03-02T05:15:56.768Z,65.02
2023-03-02T05:18:24.312Z,65.33
2023-03-02T05:20:51.993Z,65.44
2023-03-02T05:23:29.981Z,65.45
2023-03-02T05:25:56.235Z,65.39
2023-03-02T05:28:24.338Z,65.46
2023-03-02T05:30:51.217Z,65.33
2023-03-02T05:33:18.365Z,65.58
2023-03-02T05:35:45.274Z,65.54
2023-03-02T05:38:11.861Z,65.37
2023-03-02T05:40:39.669Z,65.45
2023-03-02T05:43:06.701Z,65.37
2023-03-02T05:45:35.852Z,65.06
2023-03-02T05:48:02.950Z,65.26
2023-03-02T05:50:29.356Z,65.32
2023-03-02T05:52:55.566Z,65.06
2023-03-02T05:55:21.655Z,65.22
2023-03-02T05:57:50.586Z,65.08
2023-03-02T06:00:17.647Z,65.09
2023-03-02T06:02:43.739Z,65.01
2023-03-02T06:05:13.050Z,65.13
2023-03-02T06:07:39.455Z,65.24
2023-03-02T06:10:08.297Z,65.29
2023-03-02T06:12:35.229Z,65.18
2023-03-02T06:15:01.848Z,65.15
2023-03-02T06:17:28.026Z,65.36
2023-03-02T06:19:54.102Z,65.21
2023-03-02T06:22:20.272Z,65.14
2023-03-02T06:24:46.333Z,64.99
2023-03-02T06:27:13.406Z,65.09
2023-03-02T06:29:39.486Z,65.06
2023-03-02T06:32:06.239Z,65.06
2023-03-02T06:34:34.524Z,64.76
2023-03-02T06:37:01.678Z,64.56
2023-03-02T06:39:27.731Z,64.80
2023-03-02T06:41:54.046Z,64.86
2023-03-02T06:44:20.444Z,64.74
2023-03-02T06:46:46.539Z,64.86
2023-03-02T06:49:14.185Z,64.92
2023-03-02T06:51:42.132Z,64.73
2023-03-02T06:54:09.656Z,64.69
2023-03-02T06:56:36.432Z,64.86
2023-03-02T06:59:02.648Z,65.00
2023-03-02T07:01:35.022Z,64.88
2023-03-02T07:04:03.112Z,64.95
2023-03-02T07:06:29.273Z,64.90
2023-03-02T07:08:55.360Z,65.00
2023-03-02T07:11:21.636Z,64.83
2023-03-02T07:13:47.755Z,64.94
2023-03-02T07:16:14.779Z,65.06
2023-03-02T07:18:41.483Z,65.19
2023-03-02T07:21:07.882Z,64.96
2023-03-02T07:23:34.420Z,64.71
2023-03-02T07:26:00.562Z,64.58
2023-03-02T07:28:26.882Z,64.71
2023-03-02T07:30:53.832Z,64.68
2023-03-02T07:33:20.835Z,64.66
2023-03-02T07:35:47.048Z,64.72
2023-03-02T07:38:13.261Z,64.89
2023-03-02T07:40:41.279Z,64.95
2023-03-02T07:43:08.044Z,64.83
2023-03-02T07:45:34.506Z,64.59
2023-03-02T07:48:00.612Z,64.48
2023-03-02T07:50:26.663Z,64.26
2023-03-02T07:52:52.945Z,64.26
2023-03-02T07:55:19.005Z,64.52
2023-03-02T07:57:45.110Z,64.41
2023-03-02T08:00:12.084Z,64.27
2023-03-02T08:02:42.308Z,64.27
2023-03-02T08:05:10.509Z,64.30
2023-03-02T08:07:36.845Z,64.00
2023-03-02T08:10:03.528Z,63.90
2023-03-02T08:12:29.669Z,63.50
2023-03-02T08:14:55.997Z,63.59
2023-03-02T08:17:22.338Z,63.71
2023-03-02T08:19:48.672Z,63.67
2023-03-02T08:22:15.024Z,63.74
2023-03-02T08:24:42.206Z,63.66
2023-03-02T08:27:13.018Z,63.78
2023-03-02T08:29:39.357Z,63.76
2023-03-02T08:32:06.007Z,63.69
2023-03-02T08:34:32.285Z,63.90
2023-03-02T08:36:58.729Z,64.04
2023-03-02T08:39:24.851Z,64.15
2023-03-02T08:41:54.153Z,64.05
2023-03-02T08:44:21.535Z,63.90
2023-03-02T08:46:49.422Z,63.53
2023-03-02T08:49:15.963Z,63.71
2023-03-02T08:51:42.755Z,63.85
2023-03-02T08:54:10.504Z,64.13
2023-03-02T08:56:38.944Z,64.08
2023-03-02T08:59:09.242Z,63.85
2023-03-02T09:01:37.318Z,63.77
2023-03-02T09:04:05.945Z,63.82
2023-03-02T09:06:36.394Z,63.65
2023-03-02T09:09:04.359Z,63.68
2023-03-02T09:11:31.246Z,63.67
2023-03-02T09:13:57.604Z,63.66
2023-03-02T09:16:25.170Z,63.82
2023-03-02T09:18:52.343Z,63.49
2023-03-02T09:21:18.932Z,63.08
2023-03-02T09:23:45.426Z,63.36
2023-03-02T09:26:11.609Z,63.41
2023-03-02T09:28:38.336Z,63.20
2023-03-02T09:31:06.774Z,63.37
2023-03-02T09:33:34.539Z,63.39
2023-03-02T09:36:05.283Z,63.07
2023-03-02T09:38:31.320Z,63.08
2023-03-02T09:41:08.453Z,63.46
2023-03-02T09:44:14.598Z,63.59
2023-03-02T09:46:48.936Z,63.40
2023-03-02T09:49:39.935Z,63.07
2023-03-02T09:52:13.260Z,62.73
2023-03-02T09:54:40.328Z,62.91
2023-03-02T09:57:38.022Z,63.03
2023-03-02T10:00:19.528Z,62.98
2023-03-02T10:02:46.126Z,62.96
2023-03-02T10:05:17.414Z,62.89
2023-03-02T10:07:45.664Z,62.61
2023-03-02T10:10:17.667Z,62.37
2023-03-02T10:12:55.808Z,62.24
2023-03-02T10:15:30.746Z,62.04
2023-03-02T10:18:21.348Z,61.91
2023-03-02T10:20:59.152Z,61.57
2023-03-02T10:23:25.161Z,61.38
2023-03-02T10:26:05.381Z,61.95
2023-03-02T10:28:40.875Z,61.95
2023-03-02T10:31:25.337Z,62.13
2023-03-02T10:33:51.508Z,61.94
2023-03-02T10:36:22.897Z,61.91
2023-03-02T10:38:49.683Z,61.82
2023-03-02T10:41:22.877Z,61.23
2023-03-02T10:43:53.170Z,61.27
2023-03-02T10:46:19.602Z,61.79
2023-03-02T10:48:51.583Z,61.95
2023-03-02T10:51:29.356Z,61.83
2023-03-02T10:54:14.288Z,61.05
2023-03-02T10:56:49.850Z,61.50
2023-03-02T10:59:30.936Z,61.65
2023-03-02T11:02:25.009Z,61.68
2023-03-02T11:05:10.218Z,61.66
2023-03-02T11:07:36.340Z,61.85
2023-03-02T11:10:07.109Z,62.02
2023-03-02T11:12:36.379Z,62.08
2023-03-02T11:15:14.263Z,61.71
2023-03-02T11:17:42.482Z,61.46
2023-03-02T11:20:17.093Z,61.36
2023-03-02T11:23:27.931Z,60.82
2023-03-02T11:25:58.485Z,60.72
2023-03-02T11:28:45.873Z,60.74
2023-03-02T11:31:52.718Z,60.77
2023-03-02T11:34:46.047Z,60.47
2023-03-02T11:37:22.398Z,60.14
2023-03-02T11:39:54.952Z,59.93
2023-03-02T11:42:29.850Z,59.62
2023-03-02T11:45:00.177Z,59.46
2023-03-02T11:47:27.738Z,59.54
2023-03-02T11:49:57.713Z,59.36
2023-03-02T11:52:31.470Z,59.42
2023-03-02T11:55:03.953Z,59.46
2023-03-02T11:57:38.583Z,58.99
2023-03-02T12:00:14.881Z,58.35
2023-03-02T12:02:40.984Z,58.18
2023-03-02T12:05:23.769Z,58.58
2023-03-02T12:08:01.294Z,59.01
2023-03-02T12:10:35.574Z,59.00
2023-03-02T12:13:32.332Z,59.04
2023-03-02T12:15:59.334Z,59.34
2023-03-02T12:18:39.950Z,59.32
2023-03-02T12:21:15.957Z,59.32
2023-03-02T12:23:50.817Z,59.31
2023-03-02T12:26:19.973Z,59.18
2023-03-02T12:29:10.390Z,59.24
2023-03-02T12:31:51.653Z,59.31
2023-03-02T12:34:23.868Z,59.19
2023-03-02T12:36:54.193Z,59.08
2023-03-02T12:39:32.214Z,59.16
2023-03-02T12:42:11.926Z,59.09
2023-03-02T12:44:56.223Z,59.52
2023-03-02T12:47:29.317Z,59.42
2023-03-02T12:49:58.604Z,59.22
2023-03-02T12:52:34.020Z,59.39
2023-03-02T12:55:08.818Z,59.36
2023-03-02T12:57:38.598Z,59.27
2023-03-02T13:00:05.960Z,59.15
2023-03-02T13:02:34.658Z,59.13
2023-03-02T13:05:06.464Z,58.98
2023-03-02T13:07:40.727Z,59.00
2023-03-02T13:10:25.267Z,59.27
2023-03-02T13:12:51.521Z,59.11
2023-03-02T13:15:17.901Z,58.78
2023-03-02T13:17:51.643Z,59.16
2023-03-02T13:20:19.684Z,59.35
2023-03-02T13:22:46.234Z,59.29
2023-03-02T13:25:23.086Z,59.19
2023-03-02T13:28:00.139Z,59.13
2023-03-02T13:30:29.709Z,59.21
2023-03-02T13:33:01.010Z,59.01
2023-03-02T13:35:30.419Z,59.00
2023-03-02T13:37:58.958Z,58.93
2023-03-02T13:40:38.387Z,59.01
2023-03-02T13:43:18.674Z,59.05
2023-03-02T13:46:14.675Z,59.01
2023-03-02T13:48:40.838Z,59.82
2023-03-02T13:51:17.018Z,60.77
2023-03-02T13:54:04.113Z,60.01
2023-03-02T13:56:37.369Z,59.28
2023-03-02T13:59:04.770Z,59.47
2023-03-02T14:01:30.877Z,59.46
2023-03-02T14:03:58.682Z,59.41
2023-03-02T14:06:24.827Z,59.49
2023-03-02T14:08:50.852Z,59.48
2023-03-02T14:11:17.994Z,59.04
2023-03-02T14:14:04.095Z,59.04
2023-03-02T14:16:30.406Z,59.12
2023-03-02T14:18:56.799Z,58.94
2023-03-02T14:21:24.692Z,58.66
2023-03-02T14:23:52.183Z,58.69
2023-03-02T14:26:30.048Z,58.77
2023-03-02T14:29:05.530Z,58.75
2023-03-02T14:31:33.151Z,58.59
2023-03-02T14:33:59.370Z,58.31
2023-03-02T14:36:32.528Z,58.43
2023-03-02T14:39:02.294Z,58.38
2023-03-02T14:41:29.328Z,58.53
2023-03-02T14:43:55.465Z,58.70
2023-03-02T14:46:21.617Z,58.72
2023-03-02T14:48:47.813Z,58.65
2023-03-02T14:51:26.617Z,58.99
2023-03-02T14:53:54.962Z,59.13
2023-03-02T14:56:22.344Z,59.17
2023-03-02T14:58:50.307Z,58.91
2023-03-02T15:01:17.640Z,58.71
2023-03-02T15:03:43.884Z,58.86
2023-03-02T15:06:25.245Z,59.29
2023-03-02T15:08:51.526Z,59.35
2023-03-02T15:11:17.670Z,59.33
2023-03-02T15:13:45.673Z,58.77
2023-03-02T15:16:11.903Z,58.79
2023-03-02T15:18:38.608Z,58.74
2023-03-02T15:21:05.972Z,58.76
2023-03-02T15:23:32.417Z,59.15
2023-03-02T15:26:03.056Z,59.16
2023-03-02T15:28:29.418Z,59.13
2023-03-02T15:30:55.572Z,59.28
2023-03-02T15:33:22.142Z,59.12
2023-03-02T15:35:55.467Z,59.03
2023-03-02T15:38:21.806Z,58.98
2023-03-02T15:40:47.937Z,59.18
2023-03-02T15:43:14.080Z,59.38
2023-03-02T15:45:47.065Z,59.53
2023-03-02T15:48:13.776Z,59.53
2023-03-02T15:50:42.985Z,59.75
2023-03-02T15:53:09.258Z,59.54
2023-03-02T15:55:40.011Z,59.44
2023-03-02T15:58:08.631Z,59.58
2023-03-02T16:00:37.013Z,59.62
2023-03-02T16:03:03.501Z,59.94
2023-03-02T16:05:29.619Z,60.00
2023-03-02T16:07:55.715Z,59.94
2023-03-02T16:10:24.268Z,59.98
2023-03-02T16:12:50.338Z,60.10
2023-03-02T16:15:16.593Z,60.04
2023-03-02T16:17:42.821Z,60.26
2023-03-02T16:20:12.119Z,60.37
2023-03-02T16:22:38.367Z,60.29
2023-03-02T16:25:04.911Z,60.07
2023-03-02T16:27:30.931Z,60.21
2023-03-02T16:29:57.147Z,60.45
2023-03-02T16:32:23.434Z,60.87
2023-03-02T16:34:49.648Z,61.36
2023-03-02T16:37:15.874Z,61.42
2023-03-02T16:39:42.117Z,61.66
2023-03-02T16:42:08.217Z,61.64
2023-03-02T16:44:34.432Z,61.57
2023-03-02T16:47:00.485Z,61.76
2023-03-02T16:49:26.678Z,61.54
2023-03-02T16:51:57.414Z,61.68
2023-03-02T16:54:24.250Z,61.80
2023-03-02T16:56:50.584Z,61.77
2023-03-02T16:59:16.731Z,61.69
2023-03-02T17:01:43.076Z,61.73
2023-03-02T17:04:09.305Z,61.65
2023-03-02T17:06:35.408Z,61.57
2023-03-02T17:09:01.612Z,61.45
2023-03-02T17:11:27.839Z,61.46
2023-03-02T17:13:53.925Z,61.46
2023-03-02T17:16:20.217Z,61.36
2023-03-02T17:18:46.425Z,61.76
2023-03-02T17:21:15.604Z,61.76
2023-03-02T17:23:42.883Z,62.19
2023-03-02T17:26:09.294Z,62.19
2023-03-02T17:28:35.616Z,62.38
2023-03-02T17:31:04.259Z,62.35
2023-03-02T17:33:31.527Z,62.68
2023-03-02T17:35:57.657Z,62.55
2023-03-02T17:38:23.777Z,62.51
2023-03-02T17:40:50.103Z,62.40
2023-03-02T17:43:16.262Z,62.44
2023-03-02T17:45:43.120Z,62.45
2023-03-02T17:48:12.048Z,62.50
2023-03-02T17:50:38.305Z,62.40
2023-03-02T17:53:04.800Z,62.52
2023-03-02T17:55:31.162Z,62.54
2023-03-02T17:57:57.423Z,62.46
2023-03-02T18:00:24.421Z,62.54
2023-03-02T18:02:51.695Z,62.58
2023-03-02T18:05:18.218Z,62.50
2023-03-02T18:07:44.586Z,62.65
2023-03-02T18:10:11.942Z,62.71
2023-03-02T18:12:38.233Z,62.73
2023-03-02T18:15:04.973Z,62.72
2023-03-02T18:17:30.994Z,62.71
2023-03-02T18:19:57.404Z,62.66
2023-03-02T18:22:24.948Z,62.72
2023-03-02T18:24:52.241Z,62.67
2023-03-02T18:27:18.768Z,62.77
2023-03-02T18:29:45.037Z,62.71
2023-03-02T18:32:11.908Z,62.51
2023-03-02T18:34:38.530Z,62.50
2023-03-02T18:37:05.073Z,62.37
2023-03-02T18:39:31.412Z,62.42
2023-03-02T18:41:57.648Z,62.60
2023-03-02T18:44:30.383Z,62.72
2023-03-02T18:46:57.084Z,62.91
2023-03-02T18:49:24.224Z,63.15
2023-03-02T18:54:16.484Z,63.46
2023-03-02T18:56:42.791Z,63.67
2023-03-02T18:59:12.693Z,63.74
2023-03-02T19:01:39.004Z,63.56
2023-03-02T19:04:05.651Z,63.53
2023-03-02T19:06:33.759Z,63.57
2023-03-02T19:09:00.278Z,63.42
2023-03-02T19:11:26.783Z,63.38
2023-03-02T19:13:53.177Z,63.25
2023-03-02T19:16:19.544Z,63.29
2023-03-02T19:18:46.180Z,63.31
2023-03-02T19:21:12.355Z,63.27
2023-03-02T19:23:38.819Z,63.32
2023-03-02T19:26:05.166Z,63.30
2023-03-02T19:28:33.292Z,63.15
2023-03-02T19:31:03.648Z,63.11
2023-03-02T19:33:31.100Z,63.07
2023-03-02T19:35:57.230Z,62.94
2023-03-02T19:38:23.526Z,62.77
2023-03-02T19:40:49.676Z,63.13
2023-03-02T19:43:16.258Z,63.04
2023-03-02T19:45:42.497Z,63.08
2023-03-02T19:48:12.829Z,63.01
2023-03-02T19:50:39.350Z,63.13
2023-03-02T19:53:06.067Z,63.06
2023-03-02T19:55:33.769Z,63.11
2023-03-02T19:58:23.018Z,63.13
2023-03-02T20:00:49.237Z,63.35
2023-03-02T20:03:15.454Z,63.42
2023-03-02T20:05:41.698Z,63.49
2023-03-02T20:08:08.540Z,63.47
2023-03-02T20:10:40.597Z,63.29
2023-03-02T20:13:07.795Z,63.15
2023-03-02T20:15:37.793Z,63.23
2023-03-02T20:18:05.601Z,63.02
2023-03-02T20:20:32.938Z,63.19
2023-03-02T20:23:03.929Z,63.14
2023-03-02T20:25:30.904Z,63.30
2023-03-02T20:27:57.747Z,63.16
2023-03-02T20:30:31.667Z,63.13
2023-03-02T20:32:58.827Z,62.89
2023-03-02T20:35:27.604Z,62.98
2023-03-02T20:37:55.432Z,63.09
2023-03-02T20:40:23.153Z,63.04
2023-03-02T20:42:49.326Z,63.09
2023-03-02T20:45:15.486Z,62.99
2023-03-02T20:47:42.226Z,63.04
2023-03-02T20:50:13.170Z,62.83
2023-03-02T20:52:39.376Z,62.57
2023-03-02T20:55:06.635Z,62.91
2023-03-02T20:57:33.146Z,62.82
2023-03-02T21:00:00.646Z,62.73
2023-03-02T21:02:26.898Z,62.59
2023-03-02T21:04:53.664Z,62.67
2023-03-02T21:07:19.906Z,62.78
2023-03-02T21:09:46.201Z,62.60
2023-03-02T21:12:12.679Z,62.68
2023-03-02T21:14:39.881Z,62.69
2023-03-02T21:17:06.778Z,62.70
2023-03-02T21:19:33.991Z,62.70
2023-03-02T21:22:00.252Z,62.60
2023-03-02T21:24:26.600Z,62.53
2023-03-02T21:26:53.594Z,62.33
2023-03-02T21:29:22.028Z,62.14
2023-03-02T21:31:49.451Z,62.28
2023-03-02T21:34:18.173Z,62.41
2023-03-02T21:36:45.084Z,62.23
2023-03-02T21:39:12.937Z,62.24
2023-03-02T21:41:39.812Z,62.45
2023-03-02T21:44:06.753Z,62.65
2023-03-02T21:46:34.919Z,62.78
2023-03-02T21:49:01.225Z,62.81
2023-03-02T21:51:27.420Z,62.87
2023-03-02T21:53:53.523Z,62.78
2023-03-02T21:56:22.553Z,62.72
2023-03-02T21:58:54.509Z,62.64
2023-03-02T22:01:22.220Z,62.43
2023-03-02T22:03:49.352Z,62.34
2023-03-02T22:06:17.292Z,62.29
2023-03-02T22:08:43.634Z,62.48
2023-03-02T22:11:19.713Z,62.66
2023-03-02T22:13:48.149Z,62.69
2023-03-02T22:16:17.235Z,62.68
2023-03-02T22:18:45.266Z,62.57
2023-03-02T22:21:33.952Z,62.53
2023-03-02T22:24:10.355Z,62.20
2023-03-02T22:26:40.168Z,62.30
2023-03-02T22:29:35.126Z,62.46
2023-03-02T22:32:14.759Z,62.55
2023-03-02T22:34:43.559Z,62.37
2023-03-02T22:37:18.350Z,62.48
2023-03-02T22:39:45.084Z,62.51
2023-03-02T22:42:22.644Z,62.54
2023-03-02T22:45:21.352Z,62.42
2023-03-02T22:47:50.686Z,62.46
2023-03-02T22:50:24.272Z,62.45
2023-03-02T22:52:51.682Z,62.27
2023-03-02T22:55:26.780Z,62.39
2023-03-02T22:57:53.038Z,62.54
2023-03-02T23:00:28.254Z,62.66
2023-03-02T23:02:55.832Z,62.71
2023-03-02T23:05:26.377Z,62.73
2023-03-02T23:08:26.084Z,62.66
2023-03-02T23:10:56.972Z,62.50
2023-03-02T23:13:27.333Z,62.62
2023-03-02T23:15:54.206Z,62.72
2023-03-02T23:18:27.484Z,62.93
2023-03-02T23:20:53.983Z,63.13
2023-03-02T23:23:22.534Z,63.25
2023-03-02T23:25:49.062Z,63.44
2023-03-02T23:28:15.222Z,63.38
2023-03-02T23:30:41.575Z,63.56
2023-03-02T23:33:08.233Z,63.68
2023-03-02T23:35:34.708Z,63.76
2023-03-02T23:38:00.884Z,63.92
2023-03-02T23:40:28.311Z,63.92
2023-03-02T23:42:55.234Z,64.08
2023-03-02T23:45:21.437Z,64.01
2023-03-02T23:47:47.549Z,63.84
2023-03-02T23:50:13.813Z,63.84
2023-03-02T23:52:40.406Z,63.77
2023-03-02T23:55:08.217Z,63.62
2023-03-02T23:57:34.411Z,63.83
